createdAt,value
2023-02-08T00:01:23.732Z,13.30
2023-02-08T00:03:52.517Z,12.70
2023-02-08T00:06:21.008Z,12.70
2023-02-08T00:08:49.195Z,9.00
2023-02-08T00:11:17.466Z,14.10
2023-02-08T00:13:45.626Z,11.70
2023-02-08T00:16:15.658Z,13.10
2023-02-08T00:18:46.681Z,12.80
2023-02-08T00:21:16.870Z,11.10
2023-02-08T00:23:46.505Z,15.90
2023-02-08T00:26:16.010Z,17.30
2023-02-08T00:28:45.031Z,12.20
2023-02-08T00:31:13.377Z,10.70
2023-02-08T00:33:42.461Z,10.80
2023-02-08T00:36:12.572Z,11.20
2023-02-08T00:38:43.831Z,10.40
2023-02-08T00:41:12.358Z,12.70
2023-02-08T00:43:41.086Z,9.00
2023-02-08T00:46:11.165Z,10.10
2023-02-08T00:48:39.428Z,11.90
2023-02-08T00:51:13.987Z,14.40
2023-02-08T00:53:45.144Z,18.50
2023-02-08T00:56:15.356Z,15.40
2023-02-08T00:58:44.329Z,13.50
2023-02-08T01:01:12.698Z,9.90
2023-02-08T01:03:42.921Z,13.20
2023-02-08T01:06:15.413Z,14.40
2023-02-08T01:08:43.995Z,13.10
2023-02-08T01:11:16.419Z,8.90
2023-02-08T01:13:45.884Z,11.00
2023-02-08T01:16:14.010Z,11.40
2023-02-08T01:18:44.681Z,12.60
2023-02-08T01:21:19.250Z,9.30
2023-02-08T01:23:48.775Z,11.00
2023-02-08T01:26:19.219Z,11.40
2023-02-08T01:28:47.987Z,10.70
2023-02-08T01:31:29.376Z,11.50
2023-02-08T01:33:58.812Z,8.10
2023-02-08T01:36:29.447Z,12.10
2023-02-08T01:38:58.106Z,11.40
2023-02-08T01:41:29.413Z,11.90
2023-02-08T01:44:12.634Z,12.00
2023-02-08T01:46:51.454Z,10.70
2023-02-08T01:49:24.814Z,11.40
2023-02-08T01:51:55.640Z,13.80
2023-02-08T01:54:27.780Z,11.80
2023-02-08T01:56:56.174Z,12.50
2023-02-08T01:59:31.374Z,12.50
2023-02-08T02:02:00.808Z,12.90
2023-02-08T02:04:29.191Z,14.30
2023-02-08T02:07:00.680Z,11.90
2023-02-08T02:09:36.480Z,15.60
2023-02-08T02:12:07.643Z,11.60
2023-02-08T02:14:39.042Z,13.20
2023-02-08T02:17:07.339Z,12.40
2023-02-08T02:19:59.851Z,11.10
2023-02-08T02:23:02.719Z,13.30
2023-02-08T02:26:04.089Z,12.80
2023-02-08T02:28:54.376Z,14.10
2023-02-08T02:31:54.633Z,15.20
2023-02-08T02:34:45.820Z,14.50
2023-02-08T02:37:42.364Z,14.60
2023-02-08T02:40:34.891Z,13.00
2023-02-08T02:43:35.118Z,12.40
2023-02-08T02:46:19.881Z,9.60
2023-02-08T02:49:01.219Z,9.80
2023-02-08T02:51:36.350Z,13.90
2023-02-08T02:54:14.647Z,13.70
2023-02-08T02:56:50.302Z,15.30
2023-02-08T02:59:20.189Z,17.30
2023-02-08T03:01:49.326Z,10.10
2023-02-08T03:04:17.557Z,10.60
2023-02-08T03:06:58.026Z,12.00
2023-02-08T03:09:26.072Z,12.50
2023-02-08T03:12:23.542Z,13.60
2023-02-08T03:15:00.672Z,17.70
2023-02-08T03:17:40.636Z,15.60
2023-02-08T03:20:14.649Z,13.70
2023-02-08T03:23:06.000Z,15.60
2023-02-08T03:25:47.785Z,15.70
2023-02-08T03:28:50.654Z,14.40
2023-02-08T03:31:57.210Z,14.50
2023-02-08T03:34:53.494Z,17.30
2023-02-08T03:37:27.655Z,13.50
2023-02-08T03:40:06.612Z,12.90
2023-02-08T03:42:37.027Z,11.80
2023-02-08T03:45:24.205Z,13.10
2023-02-08T03:47:55.147Z,11.80
2023-02-08T03:50:24.351Z,14.70
2023-02-08T03:52:53.909Z,14.40
2023-02-08T03:55:27.686Z,10.70
2023-02-08T03:58:14.990Z,18.60
2023-02-08T04:00:56.466Z,13.10
2023-02-08T04:03:28.742Z,17.40
2023-02-08T04:05:57.009Z,14.40
2023-02-08T04:08:25.472Z,15.60
2023-02-08T04:10:53.655Z,13.00
2023-02-08T04:13:21.824Z,21.50
2023-02-08T04:15:50.121Z,23.40
2023-02-08T04:18:18.420Z,20.10
2023-02-08T04:20:46.562Z,16.60
2023-02-08T04:23:14.703Z,22.70
2023-02-08T04:25:43.956Z,16.20
2023-02-08T04:28:12.193Z,17.10
2023-02-08T04:30:40.742Z,15.20
2023-02-08T04:33:09.288Z,20.00
2023-02-08T04:35:37.453Z,19.00
2023-02-08T04:38:05.515Z,23.70
2023-02-08T04:40:33.774Z,17.60
2023-02-08T04:43:02.576Z,21.80
2023-02-08T04:45:32.259Z,17.10
2023-02-08T04:48:04.094Z,20.50
2023-02-08T04:50:32.220Z,19.50
2023-02-08T04:53:00.307Z,18.50
2023-02-08T04:55:28.465Z,29.00
2023-02-08T04:57:56.550Z,19.50
2023-02-08T05:00:24.714Z,21.40
2023-02-08T05:02:57.674Z,29.90
2023-02-08T05:07:54.694Z,22.40
2023-02-08T05:10:23.483Z,25.10
2023-02-08T05:12:51.634Z,24.10
2023-02-08T05:15:19.859Z,21.20
2023-02-08T05:17:48.212Z,23.80
2023-02-08T05:20:17.082Z,23.30
2023-02-08T05:22:45.189Z,24.00
2023-02-08T05:25:13.402Z,24.10
2023-02-08T05:27:41.546Z,25.60
2023-02-08T05:30:10.349Z,21.90
2023-02-08T05:32:38.568Z,32.80
2023-02-08T05:35:07.228Z,38.80
2023-02-08T05:37:35.441Z,26.70
2023-02-08T05:40:04.382Z,27.50
2023-02-08T05:42:32.519Z,30.50
2023-02-08T05:45:01.250Z,27.00
2023-02-08T05:47:29.938Z,19.80
2023-02-08T05:49:58.151Z,34.80
2023-02-08T05:52:26.463Z,34.20
2023-02-08T05:54:54.660Z,30.60
2023-02-08T05:57:22.949Z,27.00
2023-02-08T05:59:51.550Z,25.20
2023-02-08T06:02:19.790Z,18.90
2023-02-08T06:04:48.005Z,23.60
2023-02-08T06:07:16.183Z,21.60
2023-02-08T06:09:45.110Z,20.90
2023-02-08T06:12:14.411Z,19.70
2023-02-08T06:14:42.669Z,19.90
2023-02-08T06:17:10.813Z,18.40
2023-02-08T06:19:38.905Z,38.70
2023-02-08T06:22:07.085Z,48.10
2023-02-08T06:24:35.525Z,32.70
2023-02-08T06:27:03.722Z,25.40
2023-02-08T06:29:32.126Z,21.50
2023-02-08T06:32:00.410Z,19.60
2023-02-08T06:34:29.267Z,19.60
2023-02-08T06:36:57.614Z,25.30
2023-02-08T06:39:25.844Z,24.20
2023-02-08T06:41:54.278Z,26.60
2023-02-08T06:44:22.483Z,28.00
2023-02-08T06:46:50.668Z,20.80
2023-02-08T06:49:19.202Z,22.70
2023-02-08T06:51:47.346Z,20.60
2023-02-08T06:54:15.801Z,22.20
2023-02-08T06:56:44.676Z,23.10
2023-02-08T06:59:12.829Z,19.70
2023-02-08T07:01:41.001Z,21.70
2023-02-08T07:04:09.320Z,20.50
2023-02-08T07:06:38.119Z,18.50
2023-02-08T07:09:06.543Z,18.40
2023-02-08T07:11:34.642Z,16.90
2023-02-08T07:14:02.800Z,27.20
2023-02-08T07:16:31.057Z,17.00
2023-02-08T07:18:59.282Z,22.40
2023-02-08T07:21:27.808Z,19.30
2023-02-08T07:23:55.900Z,22.50
2023-02-08T07:26:24.101Z,19.00
2023-02-08T07:28:52.209Z,16.60
2023-02-08T07:31:21.431Z,26.00
2023-02-08T07:33:50.096Z,20.50
2023-02-08T07:36:18.327Z,23.20
2023-02-08T07:38:46.458Z,43.70
2023-02-08T07:41:14.931Z,23.30
2023-02-08T07:43:44.263Z,31.20
2023-02-08T07:46:19.798Z,167.70
2023-02-08T07:48:52.956Z,29.00
2023-02-08T07:53:49.379Z,211.10
2023-02-08T07:56:18.043Z,67.00
2023-02-08T07:58:46.845Z,22.60
2023-02-08T08:01:22.407Z,66.70
2023-02-08T08:03:52.117Z,21.90
2023-02-08T08:06:23.362Z,20.50
2023-02-08T08:08:52.247Z,18.90
2023-02-08T08:11:21.683Z,20.10
2023-02-08T08:13:50.751Z,19.60
2023-02-08T08:16:19.478Z,19.30
2023-02-08T08:18:47.862Z,21.70
2023-02-08T08:21:16.973Z,23.00
2023-02-08T08:23:45.516Z,20.70
2023-02-08T08:26:17.333Z,20.00
2023-02-08T08:28:46.944Z,17.40
2023-02-08T08:31:21.692Z,19.20
2023-02-08T08:33:50.738Z,20.80
2023-02-08T08:36:19.073Z,16.90
2023-02-08T08:38:47.254Z,24.40
2023-02-08T08:41:21.845Z,19.30
2023-02-08T08:43:50.012Z,21.20
2023-02-08T08:46:18.688Z,18.00
2023-02-08T08:48:47.027Z,19.60
2023-02-08T08:51:15.635Z,20.20
2023-02-08T08:53:43.975Z,19.10
2023-02-08T08:56:12.270Z,20.40
2023-02-08T08:58:40.462Z,22.20
2023-02-08T09:01:08.884Z,19.60
2023-02-08T09:03:37.181Z,17.00
2023-02-08T09:06:05.537Z,18.40
2023-02-08T09:08:33.699Z,20.90
2023-02-08T09:11:06.844Z,24.00
2023-02-08T09:13:35.263Z,19.30
2023-02-08T09:16:13.559Z,26.60
2023-02-08T09:18:42.057Z,24.80
2023-02-08T09:21:16.296Z,22.40
2023-02-08T09:23:47.534Z,21.00
2023-02-08T09:26:18.032Z,17.50
2023-02-08T09:28:47.243Z,19.90
2023-02-08T09:31:21.052Z,20.80
2023-02-08T09:33:51.220Z,23.90
2023-02-08T09:36:21.310Z,25.00
2023-02-08T09:38:50.905Z,23.20
2023-02-08T09:41:32.500Z,28.70
2023-02-08T09:44:00.576Z,22.60
2023-02-08T09:46:32.819Z,25.20
2023-02-08T09:49:06.188Z,22.30
2023-02-08T09:51:42.397Z,24.80
2023-02-08T09:54:21.260Z,22.00
2023-02-08T09:56:50.694Z,27.30
2023-02-08T09:59:27.210Z,23.90
2023-02-08T10:02:04.313Z,25.30
2023-02-08T10:04:54.693Z,23.30
2023-02-08T10:07:25.747Z,21.90
2023-02-08T10:10:02.818Z,21.00
2023-02-08T10:12:33.638Z,21.90
2023-02-08T10:15:01.839Z,24.30
2023-02-08T10:18:00.978Z,26.30
2023-02-08T10:21:01.630Z,23.80
2023-02-08T10:24:10.220Z,22.70
2023-02-08T10:26:49.211Z,21.40
2023-02-08T10:29:30.016Z,24.60
2023-02-08T10:32:19.962Z,25.60
2023-02-08T10:34:54.676Z,27.50
2023-02-08T10:37:31.965Z,23.60
2023-02-08T10:40:17.581Z,21.10
2023-02-08T10:42:59.202Z,25.10
2023-02-08T10:45:42.232Z,21.90
2023-02-08T10:48:17.695Z,22.10
2023-02-08T10:50:47.734Z,25.30
2023-02-08T10:53:17.785Z,24.80
2023-02-08T10:55:48.270Z,23.40
2023-02-08T10:58:20.407Z,23.00
2023-02-08T11:00:52.073Z,22.80
2023-02-08T11:03:29.480Z,23.30
2023-02-08T11:05:57.722Z,24.40
2023-02-08T11:08:27.991Z,24.60
2023-02-08T11:11:05.257Z,28.90
2023-02-08T11:13:38.238Z,21.30
2023-02-08T11:16:09.960Z,21.20
2023-02-08T11:18:41.298Z,22.50
2023-02-08T11:21:23.758Z,25.70
2023-02-08T11:23:54.055Z,22.40
2023-02-08T11:26:31.225Z,23.70
2023-02-08T11:29:06.201Z,22.50
2023-02-08T11:31:36.381Z,23.80
2023-02-08T11:34:10.701Z,20.80
2023-02-08T11:36:49.094Z,23.40
2023-02-08T11:39:35.844Z,27.40
2023-02-08T11:42:05.127Z,24.00
2023-02-08T11:44:43.515Z,20.10
2023-02-08T11:47:17.054Z,25.20
2023-02-08T11:49:53.242Z,26.00
2023-02-08T11:52:32.358Z,20.00
2023-02-08T11:55:18.967Z,29.40
2023-02-08T11:57:59.509Z,25.30
2023-02-08T12:00:37.001Z,26.50
2023-02-08T12:03:13.146Z,27.10
2023-02-08T12:06:01.493Z,30.20
2023-02-08T12:08:36.493Z,26.00
2023-02-08T12:11:26.559Z,27.60
2023-02-08T12:14:12.246Z,29.00
2023-02-08T12:17:04.360Z,29.60
2023-02-08T12:19:48.304Z,34.50
2023-02-08T12:25:17.332Z,29.30
2023-02-08T12:28:10.225Z,29.40
2023-02-08T12:31:01.492Z,31.90
2023-02-08T12:33:50.906Z,24.80
2023-02-08T12:36:37.478Z,25.30
2023-02-08T12:39:27.341Z,31.60
2023-02-08T12:42:17.725Z,27.60
2023-02-08T12:44:55.703Z,28.50
2023-02-08T12:47:45.142Z,29.20
2023-02-08T12:50:27.059Z,32.70
2023-02-08T12:53:06.284Z,31.50
2023-02-08T12:55:41.944Z,27.70
2023-02-08T12:58:31.513Z,27.40
2023-02-08T13:01:17.134Z,35.20
2023-02-08T13:03:55.457Z,33.20
2023-02-08T13:06:38.233Z,28.40
2023-02-08T13:09:26.117Z,29.50
2023-02-08T13:12:10.619Z,30.80
2023-02-08T13:15:05.848Z,35.00
2023-02-08T13:17:54.276Z,28.00
2023-02-08T13:21:01.502Z,24.60
2023-02-08T13:23:34.777Z,36.30
2023-02-08T13:26:11.276Z,33.10
2023-02-08T13:28:40.696Z,31.90
2023-02-08T13:31:14.248Z,32.30
2023-02-08T13:34:01.396Z,33.80
2023-02-08T13:36:32.669Z,30.70
2023-02-08T13:39:03.676Z,34.10
2023-02-08T13:41:33.588Z,31.70
2023-02-08T13:44:18.563Z,35.10
2023-02-08T13:46:51.629Z,34.70
2023-02-08T13:49:41.829Z,30.20
2023-02-08T13:52:12.287Z,27.70
2023-02-08T13:54:40.437Z,32.70
2023-02-08T13:57:54.000Z,31.70
2023-02-08T14:00:29.255Z,25.70
2023-02-08T14:03:25.360Z,31.40
2023-02-08T14:06:06.841Z,35.00
2023-02-08T14:09:07.477Z,37.30
2023-02-08T14:12:05.011Z,33.90
2023-02-08T14:14:39.689Z,31.70
2023-02-08T14:17:07.782Z,33.30
2023-02-08T14:19:38.791Z,30.30
2023-02-08T14:22:12.963Z,29.10
2023-02-08T14:24:49.758Z,32.30
2023-02-08T14:27:30.301Z,34.90
2023-02-08T14:30:20.432Z,38.80
2023-02-08T14:32:55.156Z,37.80
2023-02-08T14:35:26.961Z,32.10
2023-02-08T14:38:20.166Z,39.20
2023-02-08T14:40:55.962Z,35.50
2023-02-08T14:43:42.651Z,33.10
2023-02-08T14:46:43.657Z,34.40
2023-02-08T14:49:14.967Z,31.30
2023-02-08T14:51:54.341Z,30.80
2023-02-08T14:54:22.475Z,38.20
2023-02-08T14:56:58.535Z,40.30
2023-02-08T14:59:30.694Z,40.80
2023-02-08T15:02:12.624Z,40.30
2023-02-08T15:04:45.861Z,45.30
2023-02-08T15:07:23.282Z,38.20
2023-02-08T15:09:52.180Z,78.50
2023-02-08T15:12:28.066Z,49.00
2023-02-08T15:14:59.529Z,50.90
2023-02-08T15:17:57.666Z,34.20
2023-02-08T15:20:29.128Z,43.50
2023-02-08T15:23:19.643Z,42.60
2023-02-08T15:25:58.554Z,43.60
2023-02-08T15:28:29.607Z,36.60
2023-02-08T15:31:10.388Z,40.50
2023-02-08T15:33:40.593Z,44.20
2023-02-08T15:36:16.983Z,45.30
2023-02-08T15:38:45.477Z,40.40
2023-02-08T15:41:29.269Z,41.80
2023-02-08T15:44:20.802Z,31.10
2023-02-08T15:49:25.937Z,39.70
2023-02-08T15:51:57.078Z,37.30
2023-02-08T15:54:26.123Z,35.80
2023-02-08T15:57:00.309Z,37.40
2023-02-08T15:59:33.023Z,37.80
2023-02-08T16:02:19.678Z,41.10
2023-02-08T16:04:48.513Z,35.70
2023-02-08T16:07:31.685Z,52.30
2023-02-08T16:10:00.637Z,54.00
2023-02-08T16:12:29.436Z,47.90
2023-02-08T16:14:57.827Z,48.90
2023-02-08T16:17:46.685Z,68.20
2023-02-08T16:20:33.820Z,76.40
2023-02-08T16:23:26.619Z,71.30
2023-02-08T16:25:58.128Z,78.40
2023-02-08T16:28:33.989Z,81.60
2023-02-08T16:31:06.033Z,82.80
2023-02-08T16:33:37.560Z,104.80
2023-02-08T16:36:06.114Z,93.80
2023-02-08T16:38:35.284Z,132.10
2023-02-08T16:41:13.437Z,106.40
2023-02-08T16:43:47.306Z,90.90
2023-02-08T16:46:15.618Z,88.30
2023-02-08T16:48:57.425Z,92.60
2023-02-08T16:51:32.155Z,73.60
2023-02-08T16:54:07.869Z,77.10
2023-02-08T16:56:37.555Z,168.80
2023-02-08T16:59:06.184Z,88.50
2023-02-08T17:01:35.264Z,111.30
2023-02-08T17:04:03.668Z,87.20
2023-02-08T17:06:34.914Z,96.30
2023-02-08T17:09:06.355Z,108.50
2023-02-08T17:11:35.445Z,125.80
2023-02-08T17:14:05.538Z,104.30
2023-02-08T17:16:35.774Z,103.60
2023-02-08T17:19:07.008Z,147.50
2023-02-08T17:21:35.148Z,151.60
2023-02-08T17:24:03.382Z,105.40
2023-02-08T17:26:42.266Z,91.10
2023-02-08T17:29:12.917Z,86.70
2023-02-08T17:31:41.436Z,108.70
2023-02-08T17:34:09.703Z,95.60
2023-02-08T17:36:37.948Z,84.70
2023-02-08T17:39:06.355Z,71.10
2023-02-08T17:41:35.665Z,69.00
2023-02-08T17:44:04.446Z,78.70
2023-02-08T17:46:33.533Z,109.30
2023-02-08T17:49:01.978Z,119.60
2023-02-08T17:51:30.953Z,86.90
2023-02-08T17:53:59.359Z,121.20
2023-02-08T17:56:28.760Z,109.20
2023-02-08T17:58:57.824Z,92.60
2023-02-08T18:01:27.324Z,80.70
2023-02-08T18:03:55.641Z,83.40
2023-02-08T18:06:25.115Z,86.40
2023-02-08T18:08:54.938Z,76.20
2023-02-08T18:11:24.317Z,82.20
2023-02-08T18:13:54.207Z,78.80
2023-02-08T18:16:26.349Z,87.10
2023-02-08T18:18:56.221Z,85.50
2023-02-08T18:21:25.993Z,68.50
2023-02-08T18:23:55.638Z,69.00
2023-02-08T18:26:25.079Z,75.00
2023-02-08T18:28:53.539Z,72.60
2023-02-08T18:31:22.170Z,76.30
2023-02-08T18:33:51.178Z,67.80
2023-02-08T18:36:20.930Z,71.80
2023-02-08T18:38:52.014Z,77.60
2023-02-08T18:41:26.333Z,63.90
2023-02-08T18:43:56.389Z,85.40
2023-02-08T18:46:27.413Z,78.00
2023-02-08T18:48:56.204Z,147.60
2023-02-08T18:51:25.856Z,262.00
2023-02-08T18:53:55.549Z,86.00
2023-02-08T18:56:27.423Z,94.90
2023-02-08T18:59:00.750Z,134.60
2023-02-08T19:01:29.689Z,120.40
2023-02-08T19:03:58.787Z,112.70
2023-02-08T19:06:28.836Z,113.90
2023-02-08T19:09:01.656Z,82.10
2023-02-08T19:11:35.893Z,77.70
2023-02-08T19:14:06.979Z,75.70
2023-02-08T19:16:36.827Z,107.90
2023-02-08T19:19:06.755Z,89.30
2023-02-08T19:21:35.692Z,93.70
2023-02-08T19:24:04.198Z,118.40
2023-02-08T19:26:39.772Z,91.80
2023-02-08T19:29:13.626Z,101.60
2023-02-08T19:31:42.905Z,98.50
2023-02-08T19:34:12.606Z,87.20
2023-02-08T19:36:46.966Z,101.00
2023-02-08T19:39:18.363Z,113.10
2023-02-08T19:41:47.674Z,109.10
2023-02-08T19:44:18.300Z,117.80
2023-02-08T19:46:51.979Z,99.30
2023-02-08T19:49:21.244Z,127.80
2023-02-08T19:51:49.723Z,103.80
2023-02-08T19:54:19.585Z,113.60
2023-02-08T19:56:50.556Z,116.80
2023-02-08T19:59:27.391Z,87.00
2023-02-08T20:01:55.872Z,85.60
2023-02-08T20:04:25.113Z,94.00
2023-02-08T20:06:54.368Z,80.10
2023-02-08T20:09:23.834Z,89.60
2023-02-08T20:12:00.196Z,110.20
2023-02-08T20:14:32.889Z,84.80
2023-02-08T20:17:02.696Z,95.60
2023-02-08T20:19:30.974Z,78.60
2023-02-08T20:21:59.135Z,86.90
2023-02-08T20:24:27.434Z,108.80
2023-02-08T20:26:55.732Z,103.00
2023-02-08T20:29:23.910Z,90.70
2023-02-08T20:31:55.904Z,100.00
2023-02-08T20:34:24.449Z,91.40
2023-02-08T20:37:06.380Z,86.20
2023-02-08T20:42:05.731Z,86.50
2023-02-08T20:44:34.041Z,83.70
2023-02-08T20:47:02.373Z,83.50
2023-02-08T20:49:32.540Z,81.70
2023-02-08T20:52:01.395Z,75.60
2023-02-08T20:54:29.760Z,91.00
2023-02-08T20:56:58.245Z,82.90
2023-02-08T20:59:26.931Z,92.00
2023-02-08T21:01:55.310Z,85.30
2023-02-08T21:04:23.789Z,100.10
2023-02-08T21:06:52.990Z,86.80
2023-02-08T21:09:22.004Z,85.40
2023-02-08T21:11:51.256Z,71.00
2023-02-08T21:14:23.438Z,77.00
2023-02-08T21:16:56.458Z,84.70
2023-02-08T21:21:58.132Z,74.70
2023-02-08T21:24:27.796Z,83.60
2023-02-08T21:26:57.118Z,82.70
2023-02-08T21:29:26.221Z,74.10
2023-02-08T21:31:56.462Z,78.30
2023-02-08T21:34:24.782Z,81.30
2023-02-08T21:36:52.994Z,78.50
2023-02-08T21:39:23.327Z,79.50
2023-02-08T21:41:53.035Z,82.70
2023-02-08T21:44:21.492Z,63.90
2023-02-08T21:46:50.077Z,67.80
2023-02-08T21:49:37.396Z,72.70
2023-02-08T21:52:24.624Z,80.60
2023-02-08T21:54:53.805Z,76.50
2023-02-08T21:57:27.932Z,77.70
2023-02-08T22:00:01.536Z,67.60
2023-02-08T22:02:31.134Z,69.10
2023-02-08T22:05:01.251Z,52.70
2023-02-08T22:07:30.038Z,64.30
2023-02-08T22:09:58.423Z,71.70
2023-02-08T22:12:26.709Z,67.20
2023-02-08T22:14:54.870Z,82.20
2023-02-08T22:17:24.491Z,62.20
2023-02-08T22:19:52.955Z,66.40
2023-02-08T22:22:21.369Z,71.50
2023-02-08T22:24:49.721Z,60.70
2023-02-08T22:27:17.896Z,73.60
2023-02-08T22:29:46.073Z,69.70
2023-02-08T22:32:17.250Z,68.60
2023-02-08T22:34:47.630Z,61.30
2023-02-08T22:37:16.385Z,69.80
2023-02-08T22:39:44.595Z,66.80
2023-02-08T22:42:14.876Z,60.90
2023-02-08T22:44:44.789Z,59.70
2023-02-08T22:47:13.532Z,65.00
2023-02-08T22:49:41.899Z,66.90
2023-02-08T22:52:11.149Z,68.90
2023-02-08T22:54:39.478Z,65.40
2023-02-08T22:57:09.782Z,70.90
2023-02-08T22:59:39.226Z,73.40
2023-02-08T23:02:07.690Z,75.30
2023-02-08T23:04:39.148Z,61.00
2023-02-08T23:07:07.617Z,77.10
2023-02-08T23:09:35.790Z,59.40
2023-02-08T23:12:04.060Z,55.90
2023-02-08T23:14:34.126Z,64.40
2023-02-08T23:17:02.976Z,66.40
2023-02-08T23:19:31.241Z,63.30
2023-02-08T23:22:00.342Z,54.60
2023-02-08T23:24:28.818Z,70.40
2023-02-08T23:26:57.313Z,67.10
2023-02-08T23:29:26.236Z,66.00
2023-02-08T23:31:54.500Z,62.10
2023-02-08T23:34:22.962Z,64.10
2023-02-08T23:36:51.222Z,70.40
2023-02-08T23:39:19.502Z,65.80
2023-02-08T23:41:48.589Z,65.90
2023-02-08T23:44:16.772Z,61.50
2023-02-08T23:46:45.155Z,63.50
2023-02-08T23:49:13.324Z,70.60
2023-02-08T23:51:41.490Z,77.10
2023-02-08T23:54:09.666Z,62.30
2023-02-08T23:56:38.148Z,68.60
2023-02-08T23:59:08.477Z,56.50
